createdAt,value
2022-12-25T00:01:24.538Z,32.00
2022-12-25T00:03:52.314Z,32.30
2022-12-25T00:06:20.014Z,32.30
2022-12-25T00:08:47.125Z,32.40
2022-12-25T00:11:16.593Z,32.40
2022-12-25T00:13:44.163Z,32.20
2022-12-25T00:16:17.009Z,32.10
2022-12-25T00:18:44.172Z,32.30
2022-12-25T00:21:12.287Z,32.40
2022-12-25T00:23:39.480Z,32.20
2022-12-25T00:26:09.686Z,32.10
2022-12-25T00:28:36.840Z,32.20
2022-12-25T00:31:09.882Z,32.10
2022-12-25T00:33:38.359Z,32.20
2022-12-25T00:36:06.979Z,32.50
2022-12-25T00:38:36.554Z,32.40
2022-12-25T00:41:11.060Z,32.50
2022-12-25T00:43:38.758Z,32.60
2022-12-25T00:46:07.075Z,32.80
2022-12-25T00:48:35.309Z,32.90
2022-12-25T00:51:07.911Z,33.10
2022-12-25T00:53:35.290Z,33.10
2022-12-25T00:56:07.818Z,33.10
2022-12-25T00:58:35.820Z,33.20
2022-12-25T01:01:06.801Z,33.20
2022-12-25T01:03:33.926Z,33.20
2022-12-25T01:06:08.049Z,32.90
2022-12-25T01:08:37.190Z,32.80
2022-12-25T01:11:08.862Z,33.00
2022-12-25T01:13:37.494Z,33.10
2022-12-25T01:16:09.810Z,33.10
2022-12-25T01:18:37.366Z,32.90
2022-12-25T01:21:16.686Z,32.90
2022-12-25T01:23:45.154Z,32.60
2022-12-25T01:26:13.450Z,32.60
2022-12-25T01:28:41.202Z,32.50
2022-12-25T01:31:13.301Z,32.70
2022-12-25T01:33:43.446Z,32.70
2022-12-25T01:36:18.847Z,32.80
2022-12-25T01:38:46.337Z,32.60
2022-12-25T01:41:15.557Z,32.60
2022-12-25T01:44:01.933Z,32.40
2022-12-25T01:46:30.417Z,32.60
2022-12-25T01:49:01.403Z,32.70
2022-12-25T01:51:45.681Z,32.80
2022-12-25T01:54:29.570Z,32.50
2022-12-25T01:57:00.183Z,32.30
2022-12-25T01:59:28.621Z,32.40
2022-12-25T02:01:57.155Z,32.40
2022-12-25T02:04:38.942Z,32.60
2022-12-25T02:07:06.110Z,32.40
2022-12-25T02:09:33.267Z,32.70
2022-12-25T02:12:00.715Z,32.80
2022-12-25T02:14:31.271Z,32.80
2022-12-25T02:17:13.544Z,32.90
2022-12-25T02:20:11.859Z,32.80
2022-12-25T02:22:57.592Z,33.00
2022-12-25T02:25:36.799Z,33.00
2022-12-25T02:28:13.184Z,32.90
2022-12-25T02:30:46.052Z,32.80
2022-12-25T02:34:03.766Z,32.90
2022-12-25T02:36:51.367Z,32.90
2022-12-25T02:39:53.329Z,33.10
2022-12-25T02:43:05.085Z,33.10
2022-12-25T02:46:13.811Z,33.20
2022-12-25T02:49:23.653Z,32.80
2022-12-25T02:52:17.091Z,32.60
2022-12-25T02:55:18.658Z,32.30
2022-12-25T02:58:09.911Z,32.40
2022-12-25T03:01:03.095Z,32.70
2022-12-25T03:03:53.805Z,33.00
2022-12-25T03:06:41.338Z,33.00
2022-12-25T03:09:29.348Z,33.20
2022-12-25T03:12:09.857Z,33.30
2022-12-25T03:14:55.330Z,33.40
2022-12-25T03:17:22.493Z,33.40
2022-12-25T03:20:08.114Z,33.50
2022-12-25T03:22:55.533Z,33.40
2022-12-25T03:25:41.084Z,33.40
2022-12-25T03:28:08.205Z,33.30
2022-12-25T03:31:13.699Z,33.50
2022-12-25T03:34:08.380Z,33.50
2022-12-25T03:36:38.217Z,33.60
2022-12-25T03:39:32.779Z,33.60
2022-12-25T03:42:21.163Z,33.70
2022-12-25T03:45:47.843Z,33.50
2022-12-25T03:48:39.889Z,33.50
2022-12-25T03:51:31.456Z,33.40
2022-12-25T03:54:21.369Z,33.40
2022-12-25T03:57:07.721Z,33.50
2022-12-25T03:59:53.491Z,33.60
2022-12-25T04:02:39.265Z,33.60
2022-12-25T04:05:25.487Z,33.60
2022-12-25T04:08:10.940Z,33.60
2022-12-25T04:10:56.475Z,33.40
2022-12-25T04:13:42.002Z,33.30
2022-12-25T04:16:27.657Z,33.40
2022-12-25T04:19:13.234Z,33.40
2022-12-25T04:21:59.191Z,33.40
2022-12-25T04:24:44.878Z,33.00
2022-12-25T04:27:30.278Z,32.70
2022-12-25T04:30:15.909Z,32.60
2022-12-25T04:33:01.541Z,32.40
2022-12-25T04:35:48.237Z,32.30
2022-12-25T04:38:15.235Z,32.60
2022-12-25T04:40:42.282Z,32.50
2022-12-25T04:43:09.358Z,32.30
2022-12-25T04:45:36.470Z,32.00
2022-12-25T04:48:03.605Z,32.00
2022-12-25T04:50:30.672Z,32.00
2022-12-25T04:52:57.660Z,32.30
2022-12-25T04:55:24.720Z,32.50
2022-12-25T04:57:51.766Z,32.30
2022-12-25T05:00:19.135Z,32.50
2022-12-25T05:02:46.362Z,32.00
2022-12-25T05:05:13.581Z,31.50
2022-12-25T05:07:40.651Z,30.70
2022-12-25T05:10:08.307Z,30.90
2022-12-25T05:12:35.428Z,31.30
2022-12-25T05:15:02.491Z,31.00
2022-12-25T05:17:29.550Z,30.70
2022-12-25T05:19:56.583Z,30.70
2022-12-25T05:22:23.623Z,30.50
2022-12-25T05:24:50.759Z,29.80
2022-12-25T05:27:17.827Z,29.40
2022-12-25T05:29:44.882Z,28.80
2022-12-25T05:32:12.179Z,28.40
2022-12-25T05:34:39.213Z,28.30
2022-12-25T05:37:06.592Z,28.10
2022-12-25T05:39:33.759Z,27.50
2022-12-25T05:42:01.181Z,27.80
2022-12-25T05:44:28.280Z,27.30
2022-12-25T05:46:55.475Z,27.90
2022-12-25T05:49:22.614Z,27.90
2022-12-25T05:51:49.693Z,28.30
2022-12-25T05:54:17.077Z,28.50
2022-12-25T05:56:44.116Z,28.00
2022-12-25T05:59:11.180Z,27.90
2022-12-25T06:01:40.618Z,28.20
2022-12-25T06:04:12.411Z,27.80
2022-12-25T06:06:40.530Z,27.70
2022-12-25T06:09:07.558Z,27.10
2022-12-25T06:11:34.592Z,26.60
2022-12-25T06:14:01.657Z,27.00
2022-12-25T06:16:34.013Z,27.70
2022-12-25T06:19:04.665Z,27.70
2022-12-25T06:21:31.730Z,28.10
2022-12-25T06:24:01.051Z,29.20
2022-12-25T06:26:28.706Z,29.50
2022-12-25T06:28:55.833Z,29.80
2022-12-25T06:31:24.798Z,29.60
2022-12-25T06:33:52.235Z,29.60
2022-12-25T06:36:24.620Z,29.60
2022-12-25T06:38:52.371Z,29.20
2022-12-25T06:41:24.338Z,29.70
2022-12-25T06:43:56.932Z,30.00
2022-12-25T06:46:26.307Z,29.60
2022-12-25T06:48:53.967Z,29.00
2022-12-25T06:51:23.508Z,29.10
2022-12-25T06:53:51.750Z,29.20
2022-12-25T06:56:22.188Z,29.30
2022-12-25T06:58:51.913Z,29.60
2022-12-25T07:01:47.548Z,29.80
2022-12-25T07:04:26.657Z,29.70
2022-12-25T07:06:54.030Z,29.30
2022-12-25T07:09:21.074Z,29.20
2022-12-25T07:11:48.110Z,29.00
2022-12-25T07:14:23.909Z,28.90
2022-12-25T07:16:52.035Z,27.90
2022-12-25T07:19:19.433Z,27.00
2022-12-25T07:21:47.365Z,27.10
2022-12-25T07:24:21.684Z,27.90
2022-12-25T07:26:49.199Z,28.60
2022-12-25T07:29:16.441Z,29.80
2022-12-25T07:31:43.648Z,30.90
2022-12-25T07:34:10.685Z,31.50
2022-12-25T07:36:37.725Z,32.10
2022-12-25T07:39:04.944Z,32.30
2022-12-25T07:41:31.978Z,32.30
2022-12-25T07:43:59.004Z,32.10
2022-12-25T07:46:26.961Z,31.20
2022-12-25T07:48:54.444Z,30.70
2022-12-25T07:51:21.576Z,30.20
2022-12-25T07:53:48.655Z,29.90
2022-12-25T07:56:18.580Z,29.10
2022-12-25T07:58:46.447Z,29.40
2022-12-25T08:01:22.394Z,29.50
2022-12-25T08:03:51.999Z,29.80
2022-12-25T08:06:19.790Z,30.40
2022-12-25T08:08:47.078Z,29.90
2022-12-25T08:11:14.565Z,30.50
2022-12-25T08:13:41.626Z,31.20
2022-12-25T08:16:11.138Z,31.50
2022-12-25T08:18:39.444Z,31.80
2022-12-25T08:21:12.264Z,31.50
2022-12-25T08:23:42.004Z,31.20
2022-12-25T08:26:12.736Z,30.60
2022-12-25T08:28:40.252Z,29.50
2022-12-25T08:31:28.317Z,28.90
2022-12-25T08:33:58.092Z,28.30
2022-12-25T08:36:25.251Z,27.80
2022-12-25T08:38:55.717Z,27.80
2022-12-25T08:41:28.040Z,27.40
2022-12-25T08:43:55.237Z,27.70
2022-12-25T08:46:22.380Z,28.90
2022-12-25T08:48:50.435Z,29.40
2022-12-25T08:51:20.054Z,29.90
2022-12-25T08:53:48.789Z,29.80
2022-12-25T08:56:16.544Z,28.90
2022-12-25T08:58:43.933Z,28.60
2022-12-25T09:01:11.867Z,27.60
2022-12-25T09:03:39.711Z,26.30
2022-12-25T09:06:12.413Z,26.10
2022-12-25T09:08:46.202Z,26.30
2022-12-25T09:11:16.320Z,27.20
2022-12-25T09:13:43.863Z,27.70
2022-12-25T09:16:13.926Z,27.70
2022-12-25T09:18:41.282Z,27.90
2022-12-25T09:21:12.146Z,28.50
2022-12-25T09:23:39.318Z,28.60
2022-12-25T09:26:08.794Z,29.00
2022-12-25T09:28:35.933Z,29.40
2022-12-25T09:31:03.844Z,29.20
2022-12-25T09:33:31.049Z,30.10
2022-12-25T09:36:04.570Z,29.80
2022-12-25T09:38:34.760Z,30.20
2022-12-25T09:41:35.450Z,30.90
2022-12-25T09:44:28.714Z,30.60
2022-12-25T09:47:21.987Z,30.50
2022-12-25T09:50:05.534Z,30.20
2022-12-25T09:52:41.585Z,29.60
2022-12-25T09:55:16.444Z,29.70
2022-12-25T09:57:52.807Z,29.70
2022-12-25T10:00:26.269Z,29.80
2022-12-25T10:03:02.479Z,28.90
2022-12-25T10:05:53.136Z,28.00
2022-12-25T10:08:37.916Z,28.40
2022-12-25T10:11:10.936Z,29.00
2022-12-25T10:14:00.174Z,29.40
2022-12-25T10:16:47.177Z,29.50
2022-12-25T10:19:41.066Z,29.60
2022-12-25T10:22:19.274Z,28.90
2022-12-25T10:24:53.295Z,28.80
2022-12-25T10:27:32.738Z,29.60
2022-12-25T10:30:00.372Z,29.10
2022-12-25T10:32:27.845Z,28.50
2022-12-25T10:34:54.999Z,28.70
2022-12-25T10:37:22.071Z,28.00
2022-12-25T10:39:49.143Z,27.10
2022-12-25T10:42:19.179Z,25.70
2022-12-25T10:45:05.497Z,25.70
2022-12-25T10:47:38.138Z,25.00
2022-12-25T10:50:24.020Z,25.60
2022-12-25T10:53:04.434Z,27.10
2022-12-25T10:55:32.550Z,28.40
2022-12-25T10:58:02.669Z,28.90
2022-12-25T11:00:32.203Z,27.30
2022-12-25T11:03:00.121Z,27.10
2022-12-25T11:05:32.741Z,27.50
2022-12-25T11:08:02.618Z,27.40
2022-12-25T11:10:44.095Z,28.50
2022-12-25T11:13:22.654Z,28.80
2022-12-25T11:15:50.673Z,30.10
2022-12-25T11:18:22.532Z,30.00
2022-12-25T11:20:51.796Z,29.90
2022-12-25T11:23:24.147Z,29.70
2022-12-25T11:26:00.335Z,28.80
2022-12-25T11:28:28.967Z,29.60
2022-12-25T11:31:01.578Z,29.50
2022-12-25T11:33:34.881Z,29.80
2022-12-25T11:36:09.170Z,30.40
2022-12-25T11:38:36.179Z,30.20
2022-12-25T11:41:05.988Z,29.70
2022-12-25T11:43:53.590Z,28.70
2022-12-25T11:46:36.076Z,29.60
2022-12-25T11:49:08.470Z,28.80
2022-12-25T11:51:39.088Z,26.80
2022-12-25T11:54:34.345Z,26.50
2022-12-25T11:57:04.703Z,25.90
2022-12-25T11:59:38.767Z,25.80
2022-12-25T12:02:25.994Z,26.10
2022-12-25T12:05:11.500Z,26.70
2022-12-25T12:07:50.523Z,26.70
2022-12-25T12:10:40.434Z,27.70
2022-12-25T12:13:34.459Z,28.00
2022-12-25T12:16:01.804Z,27.30
2022-12-25T12:18:33.562Z,27.30
2022-12-25T12:21:23.777Z,27.00
2022-12-25T12:24:09.313Z,27.90
2022-12-25T12:26:41.028Z,28.50
2022-12-25T12:29:39.141Z,29.10
2022-12-25T12:32:20.433Z,29.00
2022-12-25T12:34:50.149Z,30.00
2022-12-25T12:37:38.073Z,30.80
2022-12-25T12:40:09.060Z,30.80
2022-12-25T12:42:48.626Z,31.10
2022-12-25T12:45:27.281Z,31.00
2022-12-25T12:47:55.399Z,31.00
2022-12-25T12:50:35.642Z,30.80
2022-12-25T12:53:24.157Z,30.70
2022-12-25T12:55:52.123Z,30.40
2022-12-25T12:58:38.192Z,30.90
2022-12-25T13:01:40.512Z,31.00
2022-12-25T13:04:44.026Z,31.40
2022-12-25T13:07:21.572Z,31.50
2022-12-25T13:10:07.131Z,31.30
2022-12-25T13:12:34.660Z,30.80
2022-12-25T13:15:01.923Z,30.10
2022-12-25T13:17:29.540Z,30.00
2022-12-25T13:20:02.427Z,29.70
2022-12-25T13:22:37.050Z,30.00
2022-12-25T13:25:09.619Z,29.90
2022-12-25T13:27:36.788Z,30.30
2022-12-25T13:30:20.438Z,29.90
2022-12-25T13:32:47.657Z,30.50
2022-12-25T13:35:16.752Z,30.90
2022-12-25T13:37:45.204Z,31.00
2022-12-25T13:40:38.399Z,30.70
2022-12-25T13:43:05.532Z,30.40
2022-12-25T13:45:35.134Z,30.90
2022-12-25T13:48:24.167Z,30.00
2022-12-25T13:51:00.030Z,30.30
2022-12-25T13:53:27.140Z,30.00
2022-12-25T13:55:56.061Z,30.20
2022-12-25T13:58:29.875Z,29.80
2022-12-25T14:00:58.742Z,30.00
2022-12-25T14:03:39.917Z,30.10
2022-12-25T14:06:15.402Z,29.40
2022-12-25T14:08:42.960Z,29.90
2022-12-25T14:11:11.492Z,30.00
2022-12-25T14:13:42.749Z,30.60
2022-12-25T14:16:10.986Z,30.00
2022-12-25T14:18:38.176Z,30.30
2022-12-25T14:21:07.642Z,30.30
2022-12-25T14:23:49.582Z,30.70
2022-12-25T14:26:22.476Z,30.80
2022-12-25T14:28:52.889Z,30.00
2022-12-25T14:31:21.882Z,30.30
2022-12-25T14:33:49.569Z,30.50
2022-12-25T14:36:16.965Z,30.20
2022-12-25T14:38:44.299Z,30.30
2022-12-25T14:41:33.415Z,30.10
2022-12-25T14:44:03.048Z,30.50
2022-12-25T14:46:32.834Z,30.40
2022-12-25T14:49:05.345Z,30.40
2022-12-25T14:51:33.634Z,30.00
2022-12-25T14:54:05.791Z,29.50
2022-12-25T14:56:39.331Z,30.10
2022-12-25T14:59:09.675Z,29.50
2022-12-25T15:01:40.168Z,29.50
2022-12-25T15:04:10.443Z,28.30
2022-12-25T15:06:41.163Z,28.90
2022-12-25T15:09:17.509Z,28.80
2022-12-25T15:11:51.150Z,29.00
2022-12-25T15:14:18.334Z,30.10
2022-12-25T15:16:53.945Z,30.10
2022-12-25T15:19:36.649Z,30.70
2022-12-25T15:22:04.821Z,31.00
2022-12-25T15:24:31.989Z,30.10
2022-12-25T15:27:00.855Z,30.00
2022-12-25T15:30:07.292Z,30.20
2022-12-25T15:32:22.222Z,30.30
2022-12-25T15:34:50.250Z,30.00
2022-12-25T15:37:18.443Z,30.50
2022-12-25T15:39:46.090Z,30.10
2022-12-25T15:42:15.696Z,30.00
2022-12-25T15:44:43.788Z,30.10
2022-12-25T15:47:12.694Z,28.70
2022-12-25T15:49:39.943Z,28.80
2022-12-25T15:52:10.026Z,29.50
2022-12-25T15:54:37.139Z,29.80
2022-12-25T15:57:06.847Z,29.50
2022-12-25T15:59:34.325Z,29.70
2022-12-25T16:02:02.207Z,30.10
2022-12-25T16:04:31.436Z,30.40
2022-12-25T16:06:59.634Z,30.00
2022-12-25T16:09:27.653Z,29.00
2022-12-25T16:11:54.797Z,28.50
2022-12-25T16:14:21.995Z,28.80
2022-12-25T16:16:49.111Z,29.40
2022-12-25T16:19:16.275Z,29.80
2022-12-25T16:21:47.323Z,29.20
2022-12-25T16:24:14.647Z,29.10
2022-12-25T16:26:42.536Z,29.30
2022-12-25T16:29:10.053Z,29.10
2022-12-25T16:31:37.877Z,28.00
2022-12-25T16:34:06.571Z,28.60
2022-12-25T16:36:34.580Z,28.60
2022-12-25T16:39:01.780Z,28.70
2022-12-25T16:41:28.884Z,28.90
2022-12-25T16:43:55.893Z,29.70
2022-12-25T16:46:23.528Z,29.50
2022-12-25T16:48:50.671Z,29.00
2022-12-25T16:51:20.172Z,29.80
2022-12-25T16:53:47.725Z,30.40
2022-12-25T16:56:18.012Z,29.70
2022-12-25T16:58:47.279Z,29.10
2022-12-25T17:01:17.522Z,29.30
2022-12-25T17:03:45.202Z,29.70
2022-12-25T17:06:22.978Z,29.90
2022-12-25T17:08:52.062Z,29.10
2022-12-25T17:11:24.413Z,29.30
2022-12-25T17:13:51.492Z,28.50
2022-12-25T17:16:21.649Z,28.30
2022-12-25T17:18:52.789Z,28.30
2022-12-25T17:21:19.699Z,28.30
2022-12-25T17:23:46.747Z,28.70
2022-12-25T17:26:13.866Z,28.90
2022-12-25T17:28:41.097Z,29.50
2022-12-25T17:31:09.744Z,29.50
2022-12-25T17:33:38.353Z,29.40
2022-12-25T17:36:08.238Z,28.60
2022-12-25T17:38:35.325Z,28.50
2022-12-25T17:41:05.435Z,28.70
2022-12-25T17:43:34.532Z,28.80
2022-12-25T17:46:08.996Z,28.50
2022-12-25T17:48:38.752Z,28.40
2022-12-25T17:51:08.562Z,28.40
2022-12-25T17:53:41.260Z,29.00
2022-12-25T17:56:09.883Z,29.20
2022-12-25T17:58:38.221Z,28.30
2022-12-25T18:01:10.646Z,28.40
2022-12-25T18:03:37.913Z,28.70
2022-12-25T18:06:06.407Z,28.30
2022-12-25T18:08:39.295Z,28.40
2022-12-25T18:11:10.856Z,28.80
2022-12-25T18:13:37.999Z,28.30
2022-12-25T18:16:07.412Z,27.80
2022-12-25T18:18:35.765Z,28.70
2022-12-25T18:21:02.863Z,28.30
2022-12-25T18:23:29.995Z,29.20
2022-12-25T18:26:00.633Z,29.20
2022-12-25T18:28:27.756Z,28.80
2022-12-25T18:30:54.822Z,28.00
2022-12-25T18:33:21.880Z,28.20
2022-12-25T18:35:48.965Z,28.20
2022-12-25T18:38:16.051Z,27.80
2022-12-25T18:40:44.987Z,27.90
2022-12-25T18:43:12.951Z,27.90
2022-12-25T18:45:40.691Z,28.40
2022-12-25T18:48:09.682Z,29.00
2022-12-25T18:50:38.831Z,28.70
2022-12-25T18:53:09.390Z,28.90
2022-12-25T18:55:36.480Z,28.60
2022-12-25T18:58:03.620Z,28.40
2022-12-25T19:00:30.760Z,28.40
2022-12-25T19:02:59.439Z,28.60
2022-12-25T19:05:26.763Z,28.90
2022-12-25T19:07:53.846Z,28.60
2022-12-25T19:10:20.934Z,28.40
2022-12-25T19:12:48.227Z,28.30
2022-12-25T19:15:15.393Z,27.70
2022-12-25T19:17:42.458Z,28.50
2022-12-25T19:20:10.075Z,28.80
2022-12-25T19:22:37.192Z,28.20
2022-12-25T19:25:05.306Z,28.20
2022-12-25T19:27:32.507Z,28.30
2022-12-25T19:29:59.560Z,28.00
2022-12-25T19:32:26.635Z,27.60
2022-12-25T19:34:53.744Z,28.80
2022-12-25T19:37:20.800Z,28.50
2022-12-25T19:39:47.977Z,29.00
2022-12-25T19:42:16.638Z,28.10
2022-12-25T19:44:44.252Z,28.70
2022-12-25T19:47:11.536Z,28.80
2022-12-25T19:49:39.900Z,28.10
2022-12-25T19:52:07.855Z,27.80
2022-12-25T19:54:35.173Z,28.10
2022-12-25T19:57:02.350Z,28.30
2022-12-25T19:59:29.534Z,28.30
2022-12-25T20:01:56.894Z,27.50
2022-12-25T20:04:24.035Z,28.00
2022-12-25T20:06:51.062Z,27.60
2022-12-25T20:09:21.430Z,27.80
2022-12-25T20:11:49.023Z,28.20
2022-12-25T20:14:17.207Z,27.30
2022-12-25T20:16:44.564Z,27.70
2022-12-25T20:19:13.406Z,28.20
2022-12-25T20:21:41.013Z,28.20
2022-12-25T20:24:11.917Z,27.80
2022-12-25T20:26:40.003Z,27.60
2022-12-25T20:29:07.519Z,27.40
2022-12-25T20:31:35.778Z,28.00
2022-12-25T20:34:08.662Z,27.70
2022-12-25T20:36:37.965Z,28.50
2022-12-25T20:39:10.197Z,27.60
2022-12-25T20:41:38.335Z,28.30
2022-12-25T20:44:06.891Z,28.10
2022-12-25T20:46:34.255Z,28.10
2022-12-25T20:49:03.420Z,28.20
2022-12-25T20:51:30.571Z,28.00
2022-12-25T20:53:58.013Z,28.10
2022-12-25T20:56:29.137Z,28.30
2022-12-25T20:58:57.032Z,28.10
2022-12-25T21:01:24.845Z,28.60
2022-12-25T21:03:52.489Z,28.60
2022-12-25T21:06:20.274Z,28.40
2022-12-25T21:08:47.435Z,28.20
2022-12-25T21:11:16.074Z,28.20
2022-12-25T21:13:45.481Z,27.90
2022-12-25T21:16:17.168Z,27.80
2022-12-25T21:18:45.671Z,27.80
2022-12-25T21:21:13.180Z,28.00
2022-12-25T21:23:40.925Z,27.80
2022-12-25T21:26:12.401Z,28.00
2022-12-25T21:28:39.681Z,27.90
2022-12-25T21:31:08.109Z,27.00
2022-12-25T21:33:54.050Z,27.70
2022-12-25T21:36:32.466Z,27.90
2022-12-25T21:39:02.263Z,28.30
2022-12-25T21:41:31.040Z,27.90
2022-12-25T21:43:58.592Z,28.10
2022-12-25T21:46:26.764Z,27.10
2022-12-25T21:48:54.697Z,26.20
2022-12-25T21:51:43.095Z,26.90
2022-12-25T21:54:11.128Z,27.30
2022-12-25T21:56:44.536Z,27.60
2022-12-25T21:59:19.229Z,27.90
2022-12-25T22:01:48.786Z,28.30
2022-12-25T22:04:19.663Z,27.70
2022-12-25T22:07:06.001Z,27.60
2022-12-25T22:09:33.285Z,27.00
2022-12-25T22:12:19.174Z,25.80
2022-12-25T22:14:55.332Z,26.10
2022-12-25T22:17:47.169Z,26.10
2022-12-25T22:20:20.451Z,26.30
2022-12-25T22:22:47.834Z,27.20
2022-12-25T22:25:15.618Z,27.10
2022-12-25T22:27:44.358Z,26.60
2022-12-25T22:30:33.494Z,27.60
2022-12-25T22:33:00.530Z,26.60
2022-12-25T22:35:27.611Z,26.70
2022-12-25T22:37:54.944Z,27.00
2022-12-25T22:40:21.969Z,26.70
2022-12-25T22:42:49.304Z,26.90
2022-12-25T22:45:16.698Z,27.50
2022-12-25T22:47:43.762Z,26.80
2022-12-25T22:50:12.419Z,26.60
2022-12-25T22:52:39.602Z,26.20
2022-12-25T22:55:08.709Z,26.60
2022-12-25T22:57:35.975Z,25.90
2022-12-25T23:00:04.352Z,25.50
2022-12-25T23:02:31.512Z,26.60
2022-12-25T23:04:58.705Z,26.20
2022-12-25T23:07:25.774Z,27.10
2022-12-25T23:09:52.855Z,27.40
2022-12-25T23:12:38.549Z,27.40
2022-12-25T23:15:06.214Z,26.50
2022-12-25T23:17:52.122Z,26.90
2022-12-25T23:20:37.553Z,27.20
2022-12-25T23:23:23.263Z,26.60
2022-12-25T23:26:08.610Z,26.50
2022-12-25T23:28:59.265Z,26.30
2022-12-25T23:31:30.840Z,26.40
2022-12-25T23:33:58.321Z,27.20
2022-12-25T23:36:25.731Z,27.00
2022-12-25T23:38:52.941Z,27.30
2022-12-25T23:41:20.228Z,26.70
2022-12-25T23:43:47.376Z,26.50
2022-12-25T23:46:15.284Z,26.70
2022-12-25T23:48:42.531Z,26.40
2022-12-25T23:51:09.696Z,25.40
2022-12-25T23:53:36.939Z,25.90
2022-12-25T23:56:04.620Z,25.90
2022-12-25T23:58:33.873Z,26.60
